Time;durP1;ratioP1;P1;durP2;ratioP2;P2;SDS_P1;SDS_P2;PMS_P1;PMS_P2;Temp;Humidity;BMP_temperature;BMP_pressure;BME280_temperature;BME280_humidity;BME280_pressure;Samples;Min_cycle;Max_cycle;Signal;HPM_P1;HPM_P2
2024/01/08 00:02:22;;;;;;;18.88;10.82;;;;;;;-2.65;100.00;96577.19;4976807;28;20060;-76
2024/01/08 00:04:47;;;;;;;22.50;15.10;;;;;;;-2.80;100.00;96578.16;4980409;28;20054;-72
2024/01/08 00:07:13;;;;;;;20.48;14.02;;;;;;;-2.86;100.00;96557.84;4978499;28;20046;-72
2024/01/08 00:09:38;;;;;;;20.02;12.20;;;;;;;-2.84;100.00;96566.41;4979058;28;20049;-71
2024/01/08 00:12:04;;;;;;;19.20;12.23;;;;;;;-2.72;100.00;96588.28;4979453;28;20579;-71
2024/01/08 00:14:30;;;;;;;19.80;11.50;;;;;;;-2.70;100.00;96583.41;4980942;28;20054;-71
2024/01/08 00:16:56;;;;;;;19.20;11.98;;;;;;;-2.77;100.00;96579.47;4978902;28;20110;-73
2024/01/08 00:19:21;;;;;;;19.80;12.57;;;;;;;-2.76;100.00;96573.03;4976552;28;20046;-74
2024/01/08 00:21:47;;;;;;;18.33;11.43;;;;;;;-2.98;100.00;96565.47;4979957;28;20046;-72
2024/01/08 00:24:12;;;;;;;16.42;11.00;;;;;;;-2.88;100.00;96573.41;4977916;28;20615;-72
2024/01/08 00:26:38;;;;;;;14.20;10.30;;;;;;;-2.93;100.00;96571.56;4983863;28;20070;-71
2024/01/08 00:29:03;;;;;;;22.83;12.65;;;;;;;-2.78;100.00;96578.66;4976080;28;20401;-72
2024/01/08 00:31:30;;;;;;;13.82;9.95;;;;;;;-2.73;100.00;96575.16;4980006;28;20577;-71
2024/01/08 00:33:55;;;;;;;20.38;11.35;;;;;;;-2.97;100.00;96586.63;4971840;28;20065;-72
2024/01/08 00:36:22;;;;;;;15.95;10.30;;;;;;;-2.91;100.00;96580.13;4974961;28;20975;-72
2024/01/08 00:38:47;;;;;;;19.33;12.93;;;;;;;-3.09;100.00;96595.03;4986085;28;20065;-72
2024/01/08 00:41:13;;;;;;;20.05;11.73;;;;;;;-3.05;100.00;96591.78;4994126;28;20140;-71
2024/01/08 00:43:38;;;;;;;19.52;14.75;;;;;;;-3.15;100.00;96585.44;4978978;28;20047;-70
2024/01/08 00:46:04;;;;;;;14.25;8.98;;;;;;;-3.20;100.00;96588.16;4968879;28;20414;-74
2024/01/08 00:48:29;;;;;;;19.30;10.40;;;;;;;-3.19;100.00;96589.75;4977042;28;20059;-73
2024/01/08 00:50:55;;;;;;;16.13;10.23;;;;;;;-3.13;100.00;96599.34;4979921;28;20078;-72
2024/01/08 00:53:20;;;;;;;16.23;10.55;;;;;;;-3.20;100.00;96614.16;4985299;28;20054;-72
2024/01/08 00:55:45;;;;;;;20.85;16.33;;;;;;;-3.41;100.00;96598.22;4992946;28;20116;-72
2024/01/08 00:58:11;;;;;;;18.08;11.38;;;;;;;-3.25;100.00;96612.31;4977031;28;20083;-71
2024/01/08 01:00:36;;;;;;;21.75;13.50;;;;;;;-3.28;100.00;96602.97;4978421;28;20050;-73
2024/01/08 01:03:02;;;;;;;16.90;11.13;;;;;;;-3.24;100.00;96602.38;4979625;28;20448;-75
2024/01/08 01:05:27;;;;;;;18.00;12.25;;;;;;;-3.40;100.00;96620.44;4978329;28;20061;-73
2024/01/08 01:07:52;;;;;;;21.92;13.88;;;;;;;-3.42;100.00;96619.94;4983541;28;20069;-73
2024/01/08 01:10:18;;;;;;;12.68;8.70;;;;;;;-3.16;100.00;96618.66;4977011;28;20520;-73
2024/01/08 01:12:43;;;;;;;17.52;11.50;;;;;;;-3.52;100.00;96626.94;4977967;28;20053;-73
2024/01/08 01:15:09;;;;;;;17.08;10.35;;;;;;;-3.33;100.00;96632.47;4973397;28;20046;-73
2024/01/08 01:17:34;;;;;;;16.15;9.98;;;;;;;-3.19;100.00;96626.47;4978891;28;20066;-73
2024/01/08 01:19:59;;;;;;;21.65;12.43;;;;;;;-3.50;100.00;96629.34;4979774;28;20042;-73
2024/01/08 01:22:25;;;;;;;19.45;13.05;;;;;;;-3.65;100.00;96624.91;4975525;28;20078;-73
2024/01/08 01:24:50;;;;;;;18.63;12.32;;;;;;;-3.74;100.00;96635.38;4979307;28;20038;-72
2024/01/08 01:27:15;;;;;;;18.88;11.30;;;;;;;-3.54;100.00;96636.34;4972791;28;20050;-72
2024/01/08 01:29:41;;;;;;;19.67;12.93;;;;;;;-3.69;100.00;96624.66;4976683;28;20054;-73
2024/01/08 01:32:07;;;;;;;17.33;10.52;;;;;;;-3.68;100.00;96620.88;4976492;28;20046;-73
2024/01/08 01:34:32;;;;;;;18.38;10.88;;;;;;;-3.68;100.00;96639.63;4986897;28;20042;-73
2024/01/08 01:36:58;;;;;;;22.55;16.02;;;;;;;-3.77;100.00;96638.59;4988067;28;20137;-74
2024/01/08 01:39:23;;;;;;;19.08;11.85;;;;;;;-3.73;100.00;96649.56;4982513;28;20447;-75
2024/01/08 01:41:52;;;;;;;17.80;11.77;;;;;;;-3.68;100.00;96639.63;4985091;28;20505;-74
2024/01/08 01:44:17;;;;;;;18.70;12.20;;;;;;;-3.61;100.00;96639.31;4981270;28;20096;-72
2024/01/08 01:46:47;;;;;;;18.25;12.23;;;;;;;-3.71;100.00;96650.91;4965313;28;20073;-75
2024/01/08 01:49:15;;;;;;;18.27;10.95;;;;;;;-3.64;100.00;96647.91;4975489;28;20042;-74
2024/01/08 01:51:42;;;;;;;18.50;13.23;;;;;;;-3.59;100.00;96647.09;4978281;28;20129;-73
2024/01/08 01:54:11;;;;;;;20.45;9.45;;;;;;;-3.49;100.00;96647.81;4968947;28;20154;-71
2024/01/08 01:56:37;;;;;;;24.88;15.55;;;;;;;-3.68;100.00;96638.81;4972870;28;20086;-73
2024/01/08 01:59:04;;;;;;;13.63;9.25;;;;;;;-3.79;100.00;96632.72;4981704;28;20038;-76
2024/01/08 02:01:31;;;;;;;18.55;13.00;;;;;;;-3.86;100.00;96640.25;4981979;28;20042;-72
2024/01/08 02:03:56;;;;;;;18.77;11.48;;;;;;;-3.79;100.00;96650.69;4981434;28;20046;-71
2024/01/08 02:06:23;;;;;;;18.40;12.48;;;;;;;-3.77;100.00;96643.97;4976659;28;20575;-71
2024/01/08 02:08:51;;;;;;;18.08;11.63;;;;;;;-3.80;100.00;96643.72;4982681;28;20501;-73
2024/01/08 02:11:18;;;;;;;13.25;8.93;;;;;;;-3.73;100.00;96646.88;4977110;28;20068;-73
2024/01/08 02:13:43;;;;;;;17.52;11.13;;;;;;;-3.59;100.00;96647.09;4983296;28;20116;-73
2024/01/08 02:16:09;;;;;;;19.45;12.63;;;;;;;-3.89;100.00;96652.31;4977587;28;20038;-74
2024/01/08 02:18:34;;;;;;;18.20;12.68;;;;;;;-3.89;100.00;96644.31;4982375;28;20070;-73
2024/01/08 02:21:00;;;;;;;18.85;11.90;;;;;;;-3.99;100.00;96646.22;4983004;28;20042;-73
2024/01/08 02:23:25;;;;;;;17.55;10.77;;;;;;;-3.74;100.00;96661.34;4976758;28;20097;-72
2024/01/08 02:25:50;;;;;;;19.40;11.07;;;;;;;-3.65;100.00;96657.81;4982334;28;20700;-74
2024/01/08 02:28:16;;;;;;;17.67;10.93;;;;;;;-3.56;100.00;96651.91;4976610;28;20547;-72
2024/01/08 02:30:41;;;;;;;17.15;11.45;;;;;;;-3.85;100.00;96653.38;4983554;28;20054;-72
2024/01/08 02:33:07;;;;;;;19.05;14.45;;;;;;;-3.88;100.00;96632.50;4977628;28;20053;-74
2024/01/08 02:35:32;;;;;;;17.90;11.68;;;;;;;-3.95;100.00;96649.94;4982483;28;20050;-72
2024/01/08 02:37:57;;;;;;;19.55;11.77;;;;;;;-3.94;100.00;96652.34;4981008;28;20512;-72
2024/01/08 02:40:23;;;;;;;19.00;12.45;;;;;;;-3.93;100.00;96656.59;4977049;28;20051;-73
2024/01/08 02:42:48;;;;;;;15.73;10.00;;;;;;;-4.01;100.00;96659.06;4984006;28;20135;-73
2024/01/08 02:45:14;;;;;;;14.73;9.50;;;;;;;-4.00;100.00;96647.28;4978821;28;20577;-73
2024/01/08 02:47:40;;;;;;;11.07;7.15;;;;;;;-3.84;100.00;96654.94;4983545;28;20128;-74
2024/01/08 02:50:07;;;;;;;21.25;12.43;;;;;;;-4.01;100.00;96649.16;4979667;28;20038;-75
2024/01/08 02:52:32;;;;;;;22.92;15.88;;;;;;;-4.16;100.00;96652.72;4981182;28;20050;-72
2024/01/08 02:54:58;;;;;;;23.73;9.80;;;;;;;-3.98;100.00;96661.19;4982144;28;20042;-73
2024/01/08 02:57:26;;;;;;;19.77;12.05;;;;;;;-3.85;100.00;96668.63;4977172;28;20517;-73
2024/01/08 02:59:51;;;;;;;19.00;11.02;;;;;;;-3.96;100.00;96657.16;4980826;28;20058;-73
2024/01/08 03:02:17;;;;;;;17.08;10.65;;;;;;;-3.92;100.00;96671.59;4991244;28;20130;-73
2024/01/08 03:04:42;;;;;;;17.83;10.77;;;;;;;-3.92;100.00;96673.47;4981400;28;20061;-72
2024/01/08 03:07:07;;;;;;;17.90;10.18;;;;;;;-4.13;100.00;96662.84;4974866;28;20046;-73
2024/01/08 03:09:33;;;;;;;18.33;11.43;;;;;;;-3.99;100.00;96667.63;4981287;28;20080;-72
2024/01/08 03:11:58;;;;;;;19.05;11.35;;;;;;;-4.02;100.00;96674.31;4981357;28;20046;-72
2024/01/08 03:14:24;;;;;;;17.45;10.52;;;;;;;-4.06;100.00;96670.56;4975290;28;20455;-73
2024/01/08 03:16:49;;;;;;;22.25;11.90;;;;;;;-4.15;100.00;96666.88;4979090;28;20046;-72
2024/01/08 03:19:14;;;;;;;20.40;13.27;;;;;;;-4.22;100.00;96667.16;4976439;28;20046;-72
2024/01/08 03:21:40;;;;;;;16.63;9.80;;;;;;;-4.14;100.00;96681.81;4980627;28;20410;-74
2024/01/08 03:24:05;;;;;;;15.48;9.13;;;;;;;-4.01;100.00;96675.13;4977299;28;20061;-72
2024/01/08 03:26:31;;;;;;;22.00;14.57;;;;;;;-4.25;100.00;96686.41;4983940;28;20165;-73
2024/01/08 03:28:57;;;;;;;17.05;11.20;;;;;;;-4.03;100.00;96675.38;4981004;28;20747;-72
2024/01/08 03:31:23;;;;;;;17.95;12.90;;;;;;;-4.15;100.00;96675.69;4976825;28;20985;-73
2024/01/08 03:33:48;;;;;;;18.15;8.23;;;;;;;-3.93;100.00;96664.63;4981270;28;20137;-73
2024/01/08 03:36:13;;;;;;;19.10;12.65;;;;;;;-4.06;100.00;96686.63;4976427;28;20042;-72
2024/01/08 03:38:39;;;;;;;16.50;8.25;;;;;;;-3.83;100.00;96690.56;4980606;28;20119;-72
2024/01/08 03:41:04;;;;;;;21.85;11.55;;;;;;;-3.97;100.00;96686.88;4977752;28;20038;-75
2024/01/08 03:43:30;;;;;;;20.33;12.15;;;;;;;-4.05;100.00;96688.25;4980888;28;20054;-73
2024/01/08 03:45:55;;;;;;;18.42;11.05;;;;;;;-4.14;100.00;96697.88;4979773;28;20046;-73
2024/01/08 03:48:21;;;;;;;17.50;11.43;;;;;;;-4.21;100.00;96695.50;4976801;28;20046;-73
2024/01/08 03:50:46;;;;;;;17.20;10.10;;;;;;;-4.19;100.00;96696.03;4972050;28;20046;-73
2024/01/08 03:53:11;;;;;;;17.35;13.63;;;;;;;-4.33;100.00;96686.97;4958161;28;20050;-72
2024/01/08 03:55:37;;;;;;;18.38;13.85;;;;;;;-4.31;100.00;96685.63;4979704;28;20050;-74
2024/01/08 03:58:03;;;;;;;20.83;11.75;;;;;;;-4.28;100.00;96690.44;4993984;28;20074;-75
2024/01/08 04:00:29;;;;;;;16.60;11.20;;;;;;;-4.32;100.00;96700.09;4979289;28;20042;-73
2024/01/08 04:02:54;;;;;;;16.17;10.38;;;;;;;-4.23;100.00;96689.63;4978795;28;20046;-74
2024/01/08 04:05:20;;;;;;;18.65;12.18;;;;;;;-4.19;100.00;96687.22;4970628;28;20042;-73
2024/01/08 04:07:46;;;;;;;20.90;14.18;;;;;;;-4.28;100.00;96687.75;4978442;28;20137;-74
2024/01/08 04:10:12;;;;;;;15.73;11.07;;;;;;;-4.22;100.00;96694.69;4990586;28;20137;-73
2024/01/08 04:12:38;;;;;;;20.23;9.55;;;;;;;-4.40;100.00;96684.56;4977970;28;20177;-74
2024/01/08 04:15:04;;;;;;;17.38;11.65;;;;;;;-4.45;100.00;96688.06;4977032;28;20126;-75
2024/01/08 04:17:30;;;;;;;18.38;10.43;;;;;;;-4.44;100.00;96687.00;4988025;28;20046;-74
2024/01/08 04:19:55;;;;;;;16.15;11.70;;;;;;;-4.43;100.00;96691.28;4988189;28;20061;-74
2024/01/08 04:22:20;;;;;;;17.35;13.48;;;;;;;-4.53;100.00;96675.25;4975528;28;20098;-73
2024/01/08 04:24:46;;;;;;;16.55;9.85;;;;;;;-4.45;100.00;96693.44;4983977;28;20065;-74
2024/01/08 04:27:11;;;;;;;16.40;9.63;;;;;;;-4.55;100.00;96695.31;4978906;28;20046;-74
2024/01/08 04:29:37;;;;;;;16.63;10.65;;;;;;;-4.60;100.00;96680.06;4984286;28;20042;-75
2024/01/08 04:32:03;;;;;;;19.50;9.50;;;;;;;-4.53;100.00;96706.53;4985523;28;20042;-75
2024/01/08 04:34:28;;;;;;;17.02;11.15;;;;;;;-4.51;100.00;96697.16;4977079;28;20104;-73
2024/01/08 04:36:53;;;;;;;15.90;10.38;;;;;;;-4.56;100.00;96707.06;4980602;28;20108;-74
2024/01/08 04:39:19;;;;;;;15.88;11.98;;;;;;;-4.73;100.00;96710.81;4975069;28;20050;-73
2024/01/08 04:41:44;;;;;;;14.48;10.38;;;;;;;-4.69;100.00;96697.72;4980009;28;20513;-73
2024/01/08 04:44:10;;;;;;;14.43;8.48;;;;;;;-4.59;100.00;96704.91;4975940;28;20061;-74
2024/01/08 04:46:35;;;;;;;17.70;13.80;;;;;;;-4.67;100.00;96690.22;4979468;28;20089;-74
2024/01/08 04:49:03;;;;;;;14.77;8.70;;;;;;;-4.66;100.00;96724.72;4976629;28;20078;-73
2024/01/08 04:51:30;;;;;;;14.05;8.52;;;;;;;-4.65;100.00;96712.94;4979213;28;20104;-73
2024/01/08 04:53:56;;;;;;;14.15;10.00;;;;;;;-4.76;100.00;96726.59;4977888;28;20069;-73
2024/01/08 04:56:25;;;;;;;14.20;9.60;;;;;;;-4.70;100.00;96720.16;4974182;28;20515;-74
2024/01/08 04:58:54;;;;;;;15.60;10.88;;;;;;;-4.80;100.00;96719.09;4977893;28;20061;-74
2024/01/08 05:01:20;;;;;;;14.48;8.57;;;;;;;-4.73;100.00;96726.06;4975394;28;20440;-73
2024/01/08 05:03:45;;;;;;;13.88;9.60;;;;;;;-4.75;100.00;96733.50;4978678;28;20061;-73
2024/01/08 05:06:11;;;;;;;13.00;7.75;;;;;;;-4.46;100.00;96728.44;4972959;28;20421;-73
2024/01/08 05:08:40;;;;;;;16.83;12.43;;;;;;;-4.87;100.00;96718.56;4980196;28;20092;-73
2024/01/08 05:11:06;;;;;;;15.90;9.40;;;;;;;-4.86;100.00;96716.69;4974578;28;20034;-73
2024/01/08 05:13:32;;;;;;;10.63;7.00;;;;;;;-4.82;100.00;96731.13;4978752;28;20057;-73
2024/01/08 05:15:58;;;;;;;15.85;10.05;;;;;;;-4.94;100.00;96741.28;4981108;28;20043;-72
2024/01/08 05:18:23;;;;;;;14.98;6.85;;;;;;;-4.68;100.00;96748.22;4974442;28;20922;-73
2024/01/08 05:20:48;;;;;;;13.48;8.52;;;;;;;-4.88;100.00;96745.53;4980168;28;20050;-74
2024/01/08 05:23:14;;;;;;;16.15;11.40;;;;;;;-4.87;100.00;96753.28;4977430;28;20043;-73
2024/01/08 05:25:39;;;;;;;14.73;8.38;;;;;;;-4.85;100.00;96755.69;4977830;28;20043;-72
2024/01/08 05:28:06;;;;;;;14.85;10.20;;;;;;;-4.95;100.00;96759.19;4973867;28;20453;-72
2024/01/08 05:30:31;;;;;;;13.90;10.00;;;;;;;-4.96;100.00;96746.88;4979940;28;20542;-73
2024/01/08 05:32:57;;;;;;;14.02;10.70;;;;;;;-5.04;100.00;96768.75;4981768;28;20050;-73
2024/01/08 05:35:22;;;;;;;13.20;8.32;;;;;;;-4.77;100.00;96763.19;4971466;28;20266;-73
2024/01/08 05:37:47;;;;;;;14.00;9.52;;;;;;;-4.89;100.00;96768.00;4966023;28;20410;-73
2024/01/08 05:40:13;;;;;;;14.85;9.13;;;;;;;-4.95;100.00;96771.72;4979587;28;20046;-74
2024/01/08 05:42:39;;;;;;;15.65;11.85;;;;;;;-5.07;100.00;96767.41;4982954;28;20046;-74
2024/01/08 05:45:07;;;;;;;13.07;8.43;;;;;;;-5.00;100.00;96767.97;4977523;28;20042;-74
2024/01/08 05:47:34;;;;;;;12.90;7.85;;;;;;;-4.85;100.00;96779.75;4983537;28;20112;-74
2024/01/08 05:50:03;;;;;;;10.88;7.70;;;;;;;-4.93;100.00;96789.09;4983579;28;20050;-73
2024/01/08 05:52:28;;;;;;;12.57;8.40;;;;;;;-4.88;100.00;96781.09;4965306;28;20140;-72
2024/01/08 05:54:55;;;;;;;15.57;9.52;;;;;;;-5.08;100.00;96792.50;4985795;28;20062;-74
2024/01/08 05:57:20;;;;;;;13.35;8.05;;;;;;;-4.96;100.00;96794.94;4979154;28;20041;-73
2024/01/08 05:59:46;;;;;;;12.48;8.38;;;;;;;-4.88;100.00;96788.28;4983891;28;20046;-74
2024/01/08 06:02:11;;;;;;;11.32;8.05;;;;;;;-4.87;100.00;96779.22;4976218;28;20057;-74
2024/01/08 06:04:37;;;;;;;13.73;8.98;;;;;;;-5.00;100.00;96789.34;4965238;28;20137;-72
2024/01/08 06:07:02;;;;;;;15.60;10.82;;;;;;;-5.15;100.00;96786.63;4981721;28;20585;-73
2024/01/08 06:09:28;;;;;;;16.88;9.02;;;;;;;-4.98;100.00;96791.75;4984366;28;20044;-74
2024/01/08 06:11:53;;;;;;;13.25;8.00;;;;;;;-4.93;100.00;96786.41;4984893;28;20056;-73
2024/01/08 06:14:18;;;;;;;13.00;9.88;;;;;;;-5.06;100.00;96782.41;4978150;28;20073;-73
2024/01/08 06:16:44;;;;;;;14.00;10.13;;;;;;;-5.09;100.00;96782.91;4983290;28;20101;-74
2024/01/08 06:19:10;;;;;;;14.02;9.07;;;;;;;-5.07;100.00;96772.75;4978843;28;20038;-74
2024/01/08 06:21:35;;;;;;;13.23;8.20;;;;;;;-4.97;100.00;96782.66;4972578;28;20050;-73
2024/01/08 06:24:01;;;;;;;12.88;8.05;;;;;;;-4.94;100.00;96779.47;4982264;28;20078;-73
2024/01/08 06:26:30;;;;;;;12.18;7.60;;;;;;;-4.77;100.00;96781.91;4977526;28;20054;-74
2024/01/08 06:28:55;;;;;;;9.52;6.80;;;;;;;-4.91;100.00;96778.16;4980121;28;20046;-73
2024/01/08 06:31:21;;;;;;;13.40;8.70;;;;;;;-4.84;100.00;96778.69;4978584;28;20489;-74
2024/01/08 06:33:46;;;;;;;11.98;7.95;;;;;;;-4.89;100.00;96774.13;4982455;28;20046;-74
2024/01/08 06:36:12;;;;;;;12.18;7.97;;;;;;;-4.92;100.00;96776.53;4975453;28;20108;-74
2024/01/08 06:38:37;;;;;;;15.52;10.82;;;;;;;-5.01;100.00;96789.59;4982386;28;20054;-74
2024/01/08 06:41:03;;;;;;;14.10;9.02;;;;;;;-4.94;100.00;96774.13;4980499;28;20053;-73
2024/01/08 06:43:28;;;;;;;15.95;10.18;;;;;;;-5.05;100.00;96789.31;4961501;28;20136;-74
2024/01/08 06:45:54;;;;;;;16.85;11.32;;;;;;;-5.06;100.00;96790.41;4982419;28;20054;-74
2024/01/08 06:48:19;;;;;;;13.60;10.70;;;;;;;-5.10;100.00;96765.28;4978340;28;20129;-74
2024/01/08 06:50:45;;;;;;;14.05;9.50;;;;;;;-4.99;100.00;96784.78;4983206;28;20141;-74
2024/01/08 06:53:11;;;;;;;15.73;9.13;;;;;;;-4.97;100.00;96789.88;4975955;28;20643;-75
2024/01/08 06:55:36;;;;;;;16.67;11.07;;;;;;;-5.11;100.00;96782.38;4983968;28;20052;-72
2024/01/08 06:58:02;;;;;;;15.85;11.88;;;;;;;-5.05;100.00;96789.31;4985158;28;20061;-76
2024/01/08 07:00:28;;;;;;;14.85;10.40;;;;;;;-5.06;100.00;96777.06;4980176;28;20054;-74
2024/01/08 07:02:54;;;;;;;11.57;7.90;;;;;;;-4.89;100.00;96792.03;4982492;28;20050;-73
2024/01/08 07:05:19;;;;;;;11.00;7.15;;;;;;;-4.73;100.00;96791.00;4979176;28;20050;-73
2024/01/08 07:07:45;;;;;;;14.40;7.90;;;;;;;-4.80;100.00;96787.78;4984121;28;20129;-72
2024/01/08 07:10:11;;;;;;;14.88;10.02;;;;;;;-4.98;100.00;96788.28;4977495;28;20065;-72
2024/01/08 07:12:36;;;;;;;16.60;11.88;;;;;;;-4.97;100.00;96796.00;4979816;28;20053;-72
2024/01/08 07:15:03;;;;;;;18.35;12.25;;;;;;;-5.05;100.00;96783.97;4984766;28;20405;-72
2024/01/08 07:17:29;;;;;;;14.70;9.02;;;;;;;-5.09;100.00;96790.94;4982829;28;20054;-72
2024/01/08 07:19:55;;;;;;;12.05;8.38;;;;;;;-4.97;100.00;96789.88;4982298;28;20056;-71
2024/01/08 07:22:20;;;;;;;15.68;10.27;;;;;;;-4.90;100.00;96785.88;4975118;28;20493;-70
2024/01/08 07:24:46;;;;;;;12.13;7.88;;;;;;;-4.92;100.00;96771.19;4980052;28;20055;-72
2024/01/08 07:27:11;;;;;;;16.42;9.52;;;;;;;-5.02;100.00;96785.34;4977430;28;20039;-72
2024/01/08 07:29:37;;;;;;;14.35;8.80;;;;;;;-4.85;100.00;96787.75;4981569;28;20050;-70
2024/01/08 07:32:02;;;;;;;13.30;8.80;;;;;;;-4.93;100.00;96783.75;4986036;28;20049;-73
2024/01/08 07:34:27;;;;;;;12.68;8.10;;;;;;;-4.74;100.00;96791.25;4987136;28;20441;-72
2024/01/08 07:36:53;;;;;;;15.90;11.30;;;;;;;-4.83;100.00;96786.41;4981218;28;20050;-73
2024/01/08 07:39:19;;;;;;;14.93;11.15;;;;;;;-4.87;100.00;96750.63;4976554;28;20129;-72
2024/01/08 07:41:45;;;;;;;11.90;8.05;;;;;;;-4.72;100.00;96800.59;4981428;28;20108;-73
2024/01/08 07:44:11;;;;;;;15.30;9.40;;;;;;;-4.73;100.00;96801.69;4975291;28;20054;-71
2024/01/08 07:46:36;;;;;;;17.05;10.40;;;;;;;-4.64;100.00;96786.72;4982037;28;20054;-71
2024/01/08 07:49:03;;;;;;;16.20;10.30;;;;;;;-4.80;100.00;96796.59;4994761;28;20128;-71
2024/01/08 07:51:28;;;;;;;12.68;9.35;;;;;;;-4.80;100.00;96812.63;4984241;28;20104;-71
2024/01/08 07:53:54;;;;;;;14.18;10.23;;;;;;;-4.73;100.00;96830.28;4978713;28;20178;-71
2024/01/08 07:56:24;;;;;;;17.45;9.85;;;;;;;-4.75;100.00;96811.84;4976592;28;20053;-72
2024/01/08 07:58:49;;;;;;;14.90;10.73;;;;;;;-4.89;100.00;96821.44;4980723;28;20517;-71
2024/01/08 08:01:15;;;;;;;15.73;13.52;;;;;;;-4.94;100.00;96814.19;4971831;28;20132;-71
2024/01/08 08:03:41;;;;;;;16.00;10.95;;;;;;;-4.92;100.00;96822.75;4979399;28;20074;-71
2024/01/08 08:06:06;;;;;;;17.02;11.02;;;;;;;-4.92;100.00;96824.63;4976196;28;20140;-72
2024/01/08 08:08:34;;;;;;;15.52;10.27;;;;;;;-4.89;100.00;96827.56;4981103;28;20057;-71
2024/01/08 08:11:00;;;;;;;14.15;9.50;;;;;;;-4.76;100.00;96836.94;4981534;28;20042;-72
2024/01/08 08:13:25;;;;;;;21.33;16.92;;;;;;;-4.81;100.00;96827.06;4982620;28;20508;-70
2024/01/08 08:15:51;;;;;;;12.88;9.07;;;;;;;-4.75;100.00;96849.25;4980655;28;20047;-72
2024/01/08 08:18:16;;;;;;;14.07;10.75;;;;;;;-4.82;100.00;96838.81;4973623;28;20042;-71
2024/01/08 08:20:42;;;;;;;18.23;11.80;;;;;;;-4.79;100.00;96840.13;4981507;28;20050;-72
2024/01/08 08:23:08;;;;;;;16.73;12.85;;;;;;;-4.84;100.00;96840.94;4968614;28;20219;-73
2024/01/08 08:25:34;;;;;;;13.70;11.18;;;;;;;-4.83;100.00;96820.34;4978016;28;20984;-71
2024/01/08 08:27:59;;;;;;;15.00;9.63;;;;;;;-4.90;100.00;96852.66;4979592;28;20137;-71
2024/01/08 08:30:26;;;;;;;14.10;9.80;;;;;;;-4.87;100.00;96848.69;4976153;28;20054;-71
2024/01/08 08:32:56;;;;;;;12.30;8.90;;;;;;;-4.71;100.00;96849.53;4978644;28;20457;-71
2024/01/08 08:35:22;;;;;;;14.60;9.13;;;;;;;-4.74;100.00;96840.16;4975872;28;20141;-72
2024/01/08 08:37:47;;;;;;;14.32;10.68;;;;;;;-4.90;100.00;96841.97;4979569;28;20204;-71
2024/01/08 08:40:12;;;;;;;13.98;11.15;;;;;;;-4.90;100.00;96838.50;4975707;28;20081;-72
2024/01/08 08:42:38;;;;;;;14.55;10.75;;;;;;;-4.86;100.00;96843.06;4989599;28;20050;-70
2024/01/08 08:45:04;;;;;;;13.35;9.82;;;;;;;-4.86;100.00;96843.06;4977264;28;20777;-70
2024/01/08 08:47:29;;;;;;;13.38;9.85;;;;;;;-4.84;100.00;96845.50;4981468;28;20112;-71
2024/01/08 08:49:55;;;;;;;15.65;11.35;;;;;;;-4.83;100.00;96842.53;4979415;28;20050;-71
2024/01/08 08:52:20;;;;;;;15.57;10.48;;;;;;;-4.79;100.00;96853.50;4975802;28;22855;-70
2024/01/08 08:54:46;;;;;;;16.80;12.35;;;;;;;-4.81;100.00;96844.94;4994596;28;20140;-72
2024/01/08 08:57:11;;;;;;;13.63;8.90;;;;;;;-4.58;100.00;96845.53;4974740;28;20513;-72
2024/01/08 08:59:37;;;;;;;13.20;8.93;;;;;;;-4.72;100.00;96855.91;4981000;28;20049;-72
2024/01/08 09:02:03;;;;;;;13.55;8.68;;;;;;;-4.59;100.00;96871.47;4977714;28;20517;-73
2024/01/08 09:04:28;;;;;;;17.17;12.80;;;;;;;-4.68;100.00;96865.00;4978086;28;20081;-72
2024/01/08 09:06:54;;;;;;;15.23;11.65;;;;;;;-4.74;100.00;96864.19;4979036;28;20099;-72
2024/01/08 09:09:19;;;;;;;14.13;10.75;;;;;;;-4.72;100.00;96866.59;4993922;28;20034;-72
2024/01/08 09:11:45;;;;;;;17.67;13.35;;;;;;;-4.81;100.00;96853.78;4975765;28;20050;-72
2024/01/08 09:14:11;;;;;;;17.23;10.00;;;;;;;-4.74;100.00;96866.06;4992207;28;20133;-72
2024/01/08 09:16:38;;;;;;;16.30;11.63;;;;;;;-4.73;100.00;96873.84;4980453;28;20129;-71
2024/01/08 09:19:04;;;;;;;14.93;9.95;;;;;;;-4.57;100.00;96880.03;4978606;28;20051;-71
2024/01/08 09:21:29;;;;;;;14.93;11.65;;;;;;;-4.77;100.00;96874.59;4978090;28;20053;-72
2024/01/08 09:23:54;;;;;;;17.77;12.25;;;;;;;-4.74;100.00;96877.56;4981743;28;20141;-74
2024/01/08 09:26:20;;;;;;;24.63;16.70;;;;;;;-4.63;100.00;96886.41;4973687;28;20097;-73
2024/01/08 09:28:45;;;;;;;14.98;10.40;;;;;;;-4.53;100.00;96889.09;4979576;28;20054;-73
2024/01/08 09:31:11;;;;;;;17.38;12.60;;;;;;;-4.72;100.00;96872.75;4974181;28;20198;-71
2024/01/08 09:33:37;;;;;;;17.20;11.32;;;;;;;-4.62;100.00;96888.81;4979769;28;20046;-71
2024/01/08 09:36:03;;;;;;;17.65;12.07;;;;;;;-4.61;100.00;96885.09;4977341;28;20069;-72
2024/01/08 09:38:28;;;;;;;16.85;9.05;;;;;;;-4.54;100.00;96879.47;4983024;28;20053;-70
2024/01/08 09:40:54;;;;;;;16.30;8.68;;;;;;;-4.58;100.00;96882.94;4992051;28;20522;-73
2024/01/08 09:43:19;;;;;;;20.92;15.02;;;;;;;-4.57;100.00;96887.22;4996096;28;20038;-72
2024/01/08 09:46:04;;;;;;;17.00;11.05;;;;;;;-4.50;100.00;96891.25;4991160;28;20596;-73
2024/01/08 09:48:30;;;;;;;14.80;10.30;;;;;;;-4.49;100.00;96878.69;4977803;28;20599;-72
2024/01/08 09:50:55;;;;;;;17.52;12.43;;;;;;;-4.38;100.00;96882.19;4977455;28;20058;-72
2024/01/08 09:53:21;;;;;;;15.07;10.65;;;;;;;-4.43;100.00;96877.63;4971749;28;20548;-72
2024/01/08 09:55:48;;;;;;;17.60;11.88;;;;;;;-4.45;100.00;96885.94;4979224;28;20073;-72
2024/01/08 09:58:14;;;;;;;16.27;11.02;;;;;;;-4.47;100.00;96877.34;4969742;28;20046;-71
2024/01/08 10:00:42;;;;;;;19.42;10.38;;;;;;;-4.24;100.00;96880.59;4974119;28;20046;-72
2024/01/08 10:03:08;;;;;;;17.55;11.25;;;;;;;-4.31;100.00;96882.72;4974107;28;20717;-71
2024/01/08 10:05:34;;;;;;;14.85;9.25;;;;;;;-4.23;100.00;96880.31;4984635;28;20073;-72
2024/01/08 10:08:00;;;;;;;17.30;11.18;;;;;;;-4.16;100.00;96877.38;4985755;28;20054;-72
2024/01/08 10:10:26;;;;;;;18.98;10.95;;;;;;;-4.02;100.00;96885.66;4973862;28;20053;-71
2024/01/08 10:12:53;;;;;;;16.17;10.27;;;;;;;-3.99;100.00;96882.47;4978723;28;20633;-72
2024/01/08 10:15:19;;;;;;;12.60;7.75;;;;;;;-4.23;100.00;96874.19;4971337;28;20047;-72
2024/01/08 10:17:49;;;;;;;13.88;8.90;;;;;;;-4.40;100.00;96871.75;4970040;28;20060;-72
2024/01/08 10:20:16;;;;;;;17.75;12.27;;;;;;;-4.39;100.00;96878.72;4973644;28;20047;-71
2024/01/08 10:22:43;;;;;;;16.80;10.23;;;;;;;-4.30;100.00;96868.28;4981376;28;20042;-72
2024/01/08 10:25:08;;;;;;;18.98;12.73;;;;;;;-4.36;100.00;96882.72;4980907;28;20057;-71
2024/01/08 10:27:34;;;;;;;15.25;10.13;;;;;;;-4.17;100.00;96872.31;4985045;28;20050;-70
2024/01/08 10:29:59;;;;;;;17.00;10.98;;;;;;;-4.29;100.00;96859.19;4981598;28;20057;-71
2024/01/08 10:32:25;;;;;;;17.17;12.15;;;;;;;-4.37;100.00;96860.53;4981779;28;20112;-71
2024/01/08 10:34:52;;;;;;;18.13;13.10;;;;;;;-4.32;100.00;96878.44;4997269;28;20047;-71
2024/01/08 10:37:18;;;;;;;16.60;9.10;;;;;;;-4.08;100.00;96874.16;4976691;28;20117;-71
2024/01/08 10:39:47;;;;;;;15.50;9.85;;;;;;;-3.84;100.00;96871.72;4986118;28;20137;-71
2024/01/08 10:42:13;;;;;;;17.00;9.50;;;;;;;-3.97;100.00;96863.47;4978612;28;20101;-71
2024/01/08 10:44:42;;;;;;;15.98;9.82;;;;;;;-4.11;100.00;96864.00;4987864;28;20030;-72
2024/01/08 10:47:16;;;;;;;18.67;10.37;;;;;;;-3.97;100.00;96872.28;4982026;28;20039;-71
2024/01/08 10:49:49;;;;;;;19.70;11.63;;;;;;;-4.11;100.00;96858.63;4982192;28;20077;-72
2024/01/08 10:52:26;;;;;;;20.02;13.63;;;;;;;-4.15;100.00;96864.81;4978083;28;20053;-71
2024/01/08 10:54:56;;;;;;;15.63;9.35;;;;;;;-3.95;100.00;96869.34;4981182;28;20061;-70
2024/01/08 10:57:30;;;;;;;20.80;13.13;;;;;;;-4.18;100.00;96874.16;4976225;28;20050;-72
2024/01/08 10:59:57;;;;;;;19.13;11.15;;;;;;;-4.11;100.00;96861.31;4982964;28;20050;-73
2024/01/08 11:02:24;;;;;;;17.38;10.77;;;;;;;-3.97;100.00;96871.50;4980462;28;20084;-72
2024/01/08 11:04:58;;;;;;;21.92;12.60;;;;;;;-3.96;100.00;96862.38;4994981;28;20125;-72
2024/01/08 11:07:24;;;;;;;17.88;11.10;;;;;;;-4.10;100.00;96856.78;4952537;28;20489;-72